Time;durP1;ratioP1;P1;durP2;ratioP2;P2;SDS_P1;SDS_P2;PMS_P1;PMS_P2;Temp;Humidity;BMP_temperature;BMP_pressure;BME280_temperature;BME280_humidity;BME280_pressure;Samples;Min_cycle;Max_cycle;Signal;HPM_P1;HPM_P2
2023/05/05 00:00:50;;;;;;;4.80;3.60;;;15.00;99.90;;;;;;5057943;28;20476;-86
2023/05/05 00:03:17;;;;;;;4.15;3.75;;;14.90;99.90;;;;;;5033692;28;20910;-86
2023/05/05 00:05:42;;;;;;;4.32;3.92;;;15.00;99.90;;;;;;5032748;28;20420;-86
2023/05/05 00:08:08;;;;;;;4.13;3.80;;;14.90;99.90;;;;;;5033263;28;20759;-85
2023/05/05 00:10:33;;;;;;;3.83;3.20;;;14.90;99.90;;;;;;5033239;28;20503;-85
2023/05/05 00:12:59;;;;;;;5.30;3.80;;;14.90;99.90;;;;;;5033457;28;20386;-86
2023/05/05 00:15:26;;;;;;;5.13;3.80;;;14.80;99.90;;;;;;5050867;28;20451;-85
2023/05/05 00:17:51;;;;;;;3.70;3.40;;;14.80;99.90;;;;;;5033210;28;20439;-86
2023/05/05 00:20:17;;;;;;;4.05;3.60;;;14.90;99.90;;;;;;5040310;28;20411;-85
2023/05/05 00:22:43;;;;;;;3.80;3.50;;;14.80;99.90;;;;;;5070689;28;20394;-86
2023/05/05 00:25:08;;;;;;;3.90;3.00;;;14.80;99.90;;;;;;5052359;28;20404;-85
2023/05/05 00:27:34;;;;;;;3.20;3.00;;;14.80;99.90;;;;;;5070574;28;20383;-86
2023/05/05 00:29:59;;;;;;;3.70;3.30;;;14.70;99.90;;;;;;5066146;28;20393;-86
2023/05/05 00:32:25;;;;;;;3.07;2.80;;;14.80;99.90;;;;;;5032907;28;20473;-85
2023/05/05 00:34:51;;;;;;;5.40;3.40;;;14.80;99.90;;;;;;5050943;28;20452;-86
2023/05/05 00:37:16;;;;;;;4.27;3.13;;;14.80;99.90;;;;;;5070393;28;20400;-86
2023/05/05 00:39:43;;;;;;;3.50;3.20;;;14.70;99.90;;;;;;5071065;28;20387;-85
2023/05/05 00:42:09;;;;;;;4.20;3.30;;;14.80;99.90;;;;;;5068228;28;20476;-86
2023/05/05 00:44:40;;;;;;;3.70;3.20;;;14.80;99.90;;;;;;5063890;28;20422;-85
2023/05/05 00:47:07;;;;;;;3.40;3.03;;;14.90;99.90;;;;;;5069579;28;20474;-85
2023/05/05 00:49:33;;;;;;;3.35;3.05;;;14.80;99.90;;;;;;5050601;28;20378;-86
2023/05/05 00:51:59;;;;;;;3.70;3.40;;;14.80;99.90;;;;;;5050562;28;20388;-86
2023/05/05 00:54:25;;;;;;;3.47;3.17;;;14.70;99.90;;;;;;5043834;28;20497;-85
2023/05/05 00:56:51;;;;;;;3.40;3.10;;;14.70;99.90;;;;;;5063716;28;20800;-85
2023/05/05 00:59:16;;;;;;;3.40;3.00;;;14.60;99.90;;;;;;5060790;28;20391;-85
2023/05/05 01:01:42;;;;;;;4.10;2.90;;;14.60;99.90;;;;;;5070195;28;20467;-86
2023/05/05 01:04:08;;;;;;;3.88;3.20;;;14.60;99.90;;;;;;5069914;28;20451;-86
2023/05/05 01:07:15;;;;;;;3.20;2.90;;;14.70;99.90;;;;;;5051926;28;20441;-85
2023/05/05 01:09:52;;;;;;;2.90;2.70;;;14.80;99.90;;;;;;5070948;28;20376;-86
2023/05/05 01:12:17;;;;;;;5.43;3.38;;;14.70;99.90;;;;;;5047044;28;20392;-85
2023/05/05 01:15:00;;;;;;;4.40;3.20;;;14.60;99.90;;;;;;5032669;28;20927;-86
2023/05/05 01:17:35;;;;;;;3.20;2.90;;;14.60;99.90;;;;;;5049760;28;20439;-86
2023/05/05 01:20:19;;;;;;;5.70;3.40;;;14.70;99.90;;;;;;5050223;28;20385;-85
2023/05/05 01:22:48;;;;;;;3.10;2.80;;;14.60;99.90;;;;;;5040830;28;20388;-86
2023/05/05 01:25:41;;;;;;;3.90;2.85;;;14.70;99.90;;;;;;5051735;28;20924;-85
2023/05/05 01:28:33;;;;;;;3.92;3.00;;;14.70;99.90;;;;;;5050430;28;20533;-86
2023/05/05 01:31:14;;;;;;;2.80;2.60;;;14.60;99.90;;;;;;5040759;28;20388;-86
2023/05/05 01:33:51;;;;;;;3.88;3.03;;;14.60;99.90;;;;;;5052964;28;20384;-85
2023/05/05 01:36:42;;;;;;;3.40;3.10;;;14.40;99.90;;;;;;5072797;28;20384;-85
2023/05/05 01:39:13;;;;;;;3.10;2.80;;;14.50;99.90;;;;;;5072834;28;20400;-86
2023/05/05 01:41:44;;;;;;;2.90;2.70;;;14.60;99.90;;;;;;5056698;28;20389;-85
2023/05/05 01:44:12;;;;;;;3.15;2.95;;;14.70;99.90;;;;;;5050362;28;20423;-85
2023/05/05 01:46:37;;;;;;;2.88;2.65;;;14.80;99.90;;;;;;5062313;28;20449;-85
2023/05/05 01:49:05;;;;;;;5.35;2.88;;;14.80;99.90;;;;;;5070065;28;20846;-85
2023/05/05 01:51:31;;;;;;;3.33;2.60;;;15.00;99.90;;;;;;5070236;28;20403;-85
2023/05/05 01:54:00;;;;;;;4.00;2.90;;;15.00;99.90;;;;;;5070045;28;20383;-86
2023/05/05 01:56:27;;;;;;;3.15;2.85;;;15.00;99.90;;;;;;5058652;28;20848;-86
2023/05/05 01:58:54;;;;;;;4.47;2.60;;;14.90;99.90;;;;;;5070768;28;20403;-85
2023/05/05 02:01:23;;;;;;;3.22;2.92;;;14.90;99.90;;;;;;5073633;28;20394;-85
2023/05/05 02:03:50;;;;;;;3.53;3.10;;;14.90;99.90;;;;;;5073729;28;20861;-85
2023/05/05 02:06:18;;;;;;;4.53;2.87;;;14.80;99.90;;;;;;5073016;28;20388;-85
2023/05/05 02:08:44;;;;;;;2.85;2.65;;;14.80;99.90;;;;;;5061378;28;20458;-86
2023/05/05 02:11:11;;;;;;;2.97;2.67;;;14.80;99.90;;;;;;5056363;28;20703;-85
2023/05/05 02:13:38;;;;;;;5.38;3.05;;;14.70;99.90;;;;;;5073509;28;20394;-86
2023/05/05 02:16:04;;;;;;;3.90;3.10;;;14.80;99.90;;;;;;5072793;28;20841;-85
2023/05/05 02:18:34;;;;;;;3.85;2.90;;;14.70;99.90;;;;;;5073258;28;20379;-86
2023/05/05 02:21:00;;;;;;;3.75;3.45;;;14.80;99.90;;;;;;5072219;28;20792;-85
2023/05/05 02:23:26;;;;;;;3.50;3.03;;;14.80;99.90;;;;;;5053581;28;20386;-86
2023/05/05 02:25:56;;;;;;;3.77;3.30;;;14.80;99.90;;;;;;5075268;28;20484;-86
2023/05/05 02:28:34;;;;;;;4.05;3.00;;;14.70;99.90;;;;;;5067180;28;20397;-86
2023/05/05 02:31:01;;;;;;;3.50;3.20;;;14.80;99.90;;;;;;5073407;28;20396;-85
2023/05/05 02:33:31;;;;;;;5.03;3.10;;;14.70;99.90;;;;;;5073404;28;20395;-86
2023/05/05 02:35:59;;;;;;;3.92;3.30;;;14.70;99.90;;;;;;5072953;28;20464;-85
2023/05/05 02:38:28;;;;;;;3.40;3.10;;;14.70;99.90;;;;;;5073089;28;20376;-85
2023/05/05 02:40:55;;;;;;;5.60;3.30;;;14.80;99.90;;;;;;5065369;28;20389;-86
2023/05/05 02:43:23;;;;;;;7.77;3.30;;;14.70;99.90;;;;;;5063874;28;20477;-85
2023/05/05 02:45:48;;;;;;;3.70;3.40;;;14.70;99.90;;;;;;5081045;28;20481;-86
2023/05/05 02:48:14;;;;;;;3.97;3.10;;;14.80;99.90;;;;;;5072459;28;20446;-85
2023/05/05 02:50:39;;;;;;;3.80;2.80;;;14.80;99.90;;;;;;5078637;28;20378;-86
2023/05/05 02:53:05;;;;;;;3.17;2.87;;;14.90;99.90;;;;;;5084160;28;20891;-85
2023/05/05 02:55:38;;;;;;;4.70;2.80;;;14.80;99.90;;;;;;5072954;28;20416;-86
2023/05/05 02:58:25;;;;;;;3.30;3.00;;;14.80;99.90;;;;;;5091550;28;20401;-86
2023/05/05 03:01:06;;;;;;;3.30;3.00;;;14.80;99.90;;;;;;5099056;28;20379;-86
2023/05/05 03:04:05;;;;;;;4.10;3.50;;;14.80;99.90;;;;;;5092758;28;20387;-86
2023/05/05 03:06:34;;;;;;;2.90;2.70;;;14.80;99.90;;;;;;5073560;28;20889;-85
2023/05/05 03:09:14;;;;;;;3.70;3.40;;;14.80;99.90;;;;;;5071671;28;20766;-85
2023/05/05 03:11:48;;;;;;;3.15;2.85;;;14.90;99.90;;;;;;5055038;28;20384;-86
2023/05/05 03:14:17;;;;;;;3.38;3.00;;;14.90;99.90;;;;;;5073522;28;20403;-86
2023/05/05 03:16:44;;;;;;;4.20;3.30;;;14.90;99.90;;;;;;5058986;28;20757;-85
2023/05/05 03:19:12;;;;;;;3.30;3.00;;;14.80;99.90;;;;;;5053219;28;20859;-86
2023/05/05 03:21:39;;;;;;;4.60;3.60;;;14.80;99.90;;;;;;5053092;28;20392;-86
2023/05/05 03:24:18;;;;;;;4.40;3.47;;;14.70;99.90;;;;;;5052498;28;20455;-86
2023/05/05 03:26:46;;;;;;;3.58;2.90;;;14.60;99.90;;;;;;5103171;22;20440;-82
2023/05/05 03:29:12;;;;;;;3.53;3.22;;;14.60;99.90;;;;;;5059278;28;20390;-82
2023/05/05 03:31:38;;;;;;;3.43;3.13;;;14.70;99.90;;;;;;5073365;28;20432;-83
2023/05/05 03:34:04;;;;;;;4.67;3.30;;;14.70;99.90;;;;;;5055869;28;20376;-81
2023/05/05 03:36:30;;;;;;;3.30;3.00;;;14.70;99.90;;;;;;5072697;28;20399;-82
2023/05/05 03:38:56;;;;;;;3.42;3.10;;;14.70;99.90;;;;;;5073232;28;20388;-82
2023/05/05 03:41:23;;;;;;;3.80;3.00;;;14.60;99.90;;;;;;5054904;28;20380;-81
2023/05/05 03:43:49;;;;;;;3.40;3.10;;;14.50;99.90;;;;;;5072824;28;20457;-82
2023/05/05 03:46:15;;;;;;;3.55;3.25;;;14.50;99.90;;;;;;5072148;28;20396;-81
2023/05/05 03:48:41;;;;;;;4.18;3.13;;;14.50;99.90;;;;;;5054637;28;20388;-82
2023/05/05 03:51:07;;;;;;;4.80;3.65;;;14.60;99.90;;;;;;5070262;28;20844;-82
2023/05/05 03:53:33;;;;;;;4.40;3.63;;;14.50;99.90;;;;;;5050651;28;20427;-81
2023/05/05 03:55:58;;;;;;;3.92;3.53;;;14.50;99.90;;;;;;5059139;28;20417;-80
2023/05/05 03:58:24;;;;;;;4.75;3.42;;;14.70;99.90;;;;;;5062539;28;20459;-81
2023/05/05 04:00:49;;;;;;;4.20;3.78;;;14.80;99.90;;;;;;5062781;28;20380;-82
2023/05/05 04:03:15;;;;;;;3.90;3.60;;;14.80;99.90;;;;;;5045358;28;20382;-82
2023/05/05 04:05:41;;;;;;;4.60;3.60;;;14.70;99.90;;;;;;5062918;28;20429;-82
2023/05/05 04:08:06;;;;;;;4.10;3.40;;;14.70;99.90;;;;;;5064288;28;20445;-81
2023/05/05 04:10:32;;;;;;;5.40;3.80;;;14.60;99.90;;;;;;5044360;28;20405;-82
2023/05/05 04:12:58;;;;;;;4.00;3.70;;;14.60;99.90;;;;;;5065509;28;20398;-81
2023/05/05 04:15:23;;;;;;;4.00;3.60;;;14.60;99.90;;;;;;5065065;28;20484;-82
2023/05/05 04:17:49;;;;;;;3.73;3.43;;;14.60;99.90;;;;;;5048143;28;20466;-82
2023/05/05 04:20:15;;;;;;;4.38;3.45;;;14.70;99.90;;;;;;5042929;28;20396;-81
2023/05/05 04:22:40;;;;;;;3.30;3.10;;;14.60;99.90;;;;;;5047328;28;20391;-82
2023/05/05 04:25:06;;;;;;;3.80;3.50;;;14.60;99.90;;;;;;5062394;28;20382;-82
2023/05/05 04:27:32;;;;;;;4.60;3.22;;;14.60;99.90;;;;;;5061658;28;20854;-82
2023/05/05 04:29:57;;;;;;;3.75;3.00;;;14.70;99.90;;;;;;5065613;28;20419;-82
2023/05/05 04:32:23;;;;;;;3.70;3.30;;;14.70;99.90;;;;;;5067273;28;20898;-82
2023/05/05 04:34:48;;;;;;;3.40;3.10;;;14.80;99.90;;;;;;5038347;28;20407;-81
2023/05/05 04:37:14;;;;;;;3.58;3.25;;;14.90;99.90;;;;;;5064283;28;20398;-82
2023/05/05 04:39:40;;;;;;;3.40;3.20;;;14.90;99.90;;;;;;5046085;28;20754;-81
2023/05/05 04:42:06;;;;;;;3.63;3.30;;;14.90;99.90;;;;;;5046566;28;20397;-82
2023/05/05 04:44:32;;;;;;;3.30;3.00;;;14.90;99.90;;;;;;5045517;28;20498;-81
2023/05/05 04:46:59;;;;;;;4.10;3.17;;;14.90;99.90;;;;;;5046871;28;20392;-82
2023/05/05 04:49:25;;;;;;;3.67;3.38;;;14.90;99.90;;;;;;5044572;28;20455;-82
2023/05/05 04:51:50;;;;;;;3.50;3.10;;;15.00;99.90;;;;;;5060924;28;21195;-83
2023/05/05 04:54:16;;;;;;;3.50;3.20;;;15.00;99.90;;;;;;5043660;28;20916;-82
2023/05/05 04:56:41;;;;;;;3.60;3.30;;;15.00;99.90;;;;;;5067826;28;20396;-82
2023/05/05 04:59:07;;;;;;;3.28;2.97;;;15.00;99.90;;;;;;5067101;28;20384;-83
2023/05/05 05:01:32;;;;;;;6.20;3.72;;;14.90;99.90;;;;;;5051776;28;20387;-79
2023/05/05 05:03:58;;;;;;;4.50;3.90;;;14.80;99.90;;;;;;5071655;28;20792;-82
2023/05/05 05:06:23;;;;;;;8.13;4.60;;;14.50;99.90;;;;;;5072382;28;20395;-83
2023/05/05 05:08:49;;;;;;;5.90;4.70;;;14.10;99.90;;;;;;5072656;28;20922;-82
2023/05/05 05:11:14;;;;;;;6.17;5.20;;;13.80;99.90;;;;;;5054974;28;20394;-83
2023/05/05 05:13:40;;;;;;;7.45;4.90;;;13.70;99.90;;;;;;5076446;28;20479;-84
2023/05/05 05:16:06;;;;;;;5.13;4.63;;;13.60;99.90;;;;;;5080251;28;20415;-83
2023/05/05 05:18:32;;;;;;;5.80;5.20;;;13.60;99.90;;;;;;5091906;28;20545;-83
2023/05/05 05:20:57;;;;;;;7.63;5.90;;;13.60;99.90;;;;;;5066878;28;20396;-84
2023/05/05 05:23:23;;;;;;;6.50;5.60;;;13.60;99.90;;;;;;5065580;28;20379;-86
2023/05/05 05:25:48;;;;;;;6.55;5.28;;;13.80;99.90;;;;;;5063794;28;20395;-85
2023/05/05 05:28:14;;;;;;;8.13;5.50;;;13.80;99.90;;;;;;5081335;28;20406;-86
2023/05/05 05:30:39;;;;;;;6.73;5.00;;;13.70;99.90;;;;;;5081721;28;20391;-86
2023/05/05 05:33:05;;;;;;;7.33;5.90;;;13.80;99.90;;;;;;5084443;28;20395;-85
2023/05/05 05:35:31;;;;;;;6.07;5.50;;;13.90;99.90;;;;;;5065178;28;20430;-85
2023/05/05 05:37:56;;;;;;;6.10;5.10;;;14.00;99.90;;;;;;5082322;28;20399;-84
2023/05/05 05:40:22;;;;;;;5.30;4.80;;;13.90;99.90;;;;;;5062290;28;20388;-86
2023/05/05 05:42:47;;;;;;;7.10;5.13;;;13.90;99.90;;;;;;5063510;28;20907;-86
2023/05/05 05:45:13;;;;;;;6.47;5.30;;;14.00;99.90;;;;;;5059993;28;20486;-85
2023/05/05 05:47:38;;;;;;;6.90;4.97;;;14.00;99.90;;;;;;5078700;28;20440;-85
2023/05/05 05:50:05;;;;;;;5.70;5.10;;;14.10;99.90;;;;;;5079115;28;20455;-83
2023/05/05 05:52:31;;;;;;;5.45;4.85;;;14.10;99.90;;;;;;5077990;28;20475;-82
2023/05/05 05:54:57;;;;;;;5.68;4.90;;;14.30;99.90;;;;;;5076784;28;21155;-83
2023/05/05 05:57:23;;;;;;;5.00;4.60;;;14.30;99.90;;;;;;5078123;28;20376;-84
2023/05/05 05:59:49;;;;;;;5.57;5.07;;;14.40;99.90;;;;;;5062379;28;20399;-84
2023/05/05 06:02:15;;;;;;;5.70;5.10;;;14.40;99.90;;;;;;5079524;28;20383;-84
2023/05/05 06:04:41;;;;;;;7.60;5.10;;;14.20;99.90;;;;;;5062859;28;20395;-85
2023/05/05 06:07:06;;;;;;;6.33;5.50;;;14.20;99.90;;;;;;5062190;28;20395;-84
2023/05/05 06:09:31;;;;;;;5.67;5.17;;;14.30;99.90;;;;;;5063103;28;20392;-85
2023/05/05 06:11:57;;;;;;;6.00;5.40;;;14.30;99.90;;;;;;5080296;28;20410;-84
2023/05/05 06:14:23;;;;;;;6.20;5.67;;;14.50;99.90;;;;;;5062214;28;20403;-85
2023/05/05 06:16:48;;;;;;;5.50;5.00;;;14.80;99.90;;;;;;5065858;28;20395;-83
2023/05/05 06:19:14;;;;;;;6.95;5.50;;;14.70;99.90;;;;;;5069290;28;20411;-84
2023/05/05 06:21:39;;;;;;;6.57;5.37;;;14.60;99.90;;;;;;5081329;28;20407;-85
2023/05/05 06:24:05;;;;;;;8.25;5.20;;;14.70;99.90;;;;;;5080783;28;20380;-85
2023/05/05 06:26:30;;;;;;;5.70;5.30;;;14.60;99.90;;;;;;5061293;28;20804;-85
2023/05/05 06:28:56;;;;;;;6.03;4.97;;;14.70;99.90;;;;;;5061755;28;20403;-84
2023/05/05 06:31:22;;;;;;;5.73;5.17;;;14.80;99.90;;;;;;5079878;28;20403;-85
2023/05/05 06:33:47;;;;;;;5.65;5.15;;;14.80;99.90;;;;;;5093624;28;20382;-85
2023/05/05 06:36:13;;;;;;;6.70;5.00;;;14.90;99.90;;;;;;5064749;28;20402;-85
2023/05/05 06:38:38;;;;;;;5.30;4.70;;;15.00;99.90;;;;;;5064303;28;20378;-84
2023/05/05 06:41:04;;;;;;;5.47;4.95;;;15.10;99.90;;;;;;5061045;28;20399;-86
2023/05/05 06:43:30;;;;;;;5.18;4.43;;;15.30;99.90;;;;;;5062791;28;20426;-86
2023/05/05 06:45:55;;;;;;;5.18;4.78;;;16.80;99.90;;;;;;5080638;28;20475;-87
2023/05/05 06:48:21;;;;;;;5.47;4.43;;;15.60;99.90;;;;;;5079929;28;20896;-85
2023/05/05 06:50:46;;;;;;;5.65;4.50;;;15.60;99.90;;;;;;5062798;28;20390;-86
2023/05/05 06:53:12;;;;;;;5.20;4.60;;;15.70;99.90;;;;;;5061413;28;20478;-86
2023/05/05 06:55:37;;;;;;;6.50;4.57;;;15.80;99.90;;;;;;5061538;28;20403;-86
2023/05/05 06:58:03;;;;;;;6.10;5.13;;;15.80;99.90;;;;;;5080773;28;20399;-85
2023/05/05 07:00:28;;;;;;;4.60;4.20;;;15.90;99.90;;;;;;5091170;28;20395;-84
2023/05/05 07:02:54;;;;;;;5.30;4.50;;;15.80;99.90;;;;;;5073682;28;20391;-84
2023/05/05 07:05:19;;;;;;;4.43;4.10;;;16.00;99.90;;;;;;5072037;28;20419;-85
2023/05/05 07:07:52;;;;;;;4.60;4.20;;;15.90;99.90;;;;;;5065276;28;20402;-84
2023/05/05 07:10:18;;;;;;;4.40;4.00;;;15.90;99.90;;;;;;5064896;28;20418;-83
2023/05/05 07:12:44;;;;;;;6.47;4.50;;;16.00;99.90;;;;;;5062925;28;20873;-82
2023/05/05 07:15:10;;;;;;;6.30;4.90;;;16.00;99.90;;;;;;5069559;28;20411;-81
2023/05/05 07:17:36;;;;;;;5.80;5.20;;;16.00;99.90;;;;;;5084338;28;20390;-82
2023/05/05 07:20:01;;;;;;;5.37;4.87;;;16.00;99.90;;;;;;5082900;28;20390;-81
2023/05/05 07:22:27;;;;;;;5.30;4.80;;;16.10;99.90;;;;;;5084783;28;20772;-81
2023/05/05 07:24:53;;;;;;;5.80;5.30;;;16.00;99.90;;;;;;5064778;28;21020;-81
2023/05/05 07:27:19;;;;;;;5.13;4.60;;;16.00;99.90;;;;;;5064345;28;20770;-82
2023/05/05 07:29:45;;;;;;;5.95;5.35;;;15.90;99.90;;;;;;5081050;28;20939;-82
2023/05/05 07:32:11;;;;;;;5.88;5.30;;;16.00;99.90;;;;;;5089358;28;20411;-81
2023/05/05 07:34:36;;;;;;;5.23;4.73;;;16.10;99.90;;;;;;5082176;28;20912;-82
2023/05/05 07:37:03;;;;;;;5.27;4.77;;;16.10;99.90;;;;;;5080860;28;20386;-82
2023/05/05 07:39:30;;;;;;;6.10;5.03;;;16.10;99.90;;;;;;5064189;28;21124;-82
2023/05/05 07:41:55;;;;;;;6.97;6.28;;;16.00;99.90;;;;;;5063604;28;20387;-82
2023/05/05 07:44:21;;;;;;;6.20;5.60;;;16.00;99.90;;;;;;5081010;28;20388;-82
2023/05/05 07:46:46;;;;;;;6.87;5.00;;;16.00;99.90;;;;;;5061441;28;20387;-82
2023/05/05 07:49:12;;;;;;;5.88;5.30;;;16.10;99.90;;;;;;5062187;28;20392;-81
2023/05/05 07:51:37;;;;;;;5.47;4.97;;;16.00;99.90;;;;;;5079340;28;20430;-82
2023/05/05 07:54:05;;;;;;;4.83;4.43;;;16.10;99.90;;;;;;5078673;28;20391;-82
2023/05/05 07:56:30;;;;;;;4.90;4.50;;;16.10;99.90;;;;;;5079197;28;20391;-82
2023/05/05 07:58:56;;;;;;;5.50;4.80;;;16.20;99.90;;;;;;5061254;28;20384;-82
2023/05/05 08:01:22;;;;;;;5.47;4.97;;;16.20;99.90;;;;;;5080226;28;20388;-82
2023/05/05 08:03:47;;;;;;;5.35;4.85;;;16.20;99.90;;;;;;5062533;28;20376;-82
2023/05/05 08:06:20;;;;;;;5.05;4.65;;;16.30;99.90;;;;;;5079673;28;20449;-82
2023/05/05 08:08:47;;;;;;;4.90;4.40;;;16.40;99.90;;;;;;5060608;28;20414;-82
2023/05/05 08:11:13;;;;;;;5.25;4.60;;;16.50;99.90;;;;;;5077998;28;20399;-81
2023/05/05 08:13:41;;;;;;;4.40;4.10;;;16.60;99.90;;;;;;5058250;28;20400;-82
2023/05/05 08:16:07;;;;;;;4.38;3.97;;;16.70;99.90;;;;;;5059813;28;20835;-82
2023/05/05 08:18:36;;;;;;;4.70;4.30;;;16.90;99.90;;;;;;5077529;28;20475;-82
2023/05/05 08:21:02;;;;;;;4.57;4.18;;;16.90;99.90;;;;;;5059709;28;20521;-82
2023/05/05 08:23:27;;;;;;;4.20;3.90;;;17.10;99.90;;;;;;5058725;28;20873;-82
2023/05/05 08:25:53;;;;;;;4.90;4.50;;;17.20;99.90;;;;;;5077170;28;20411;-82
2023/05/05 08:28:18;;;;;;;4.78;4.28;;;17.50;99.90;;;;;;5059659;28;20395;-82
2023/05/05 08:30:44;;;;;;;4.30;4.00;;;17.90;99.90;;;;;;5076913;28;20785;-81
2023/05/05 08:33:09;;;;;;;5.05;4.55;;;18.00;99.90;;;;;;5059096;28;20372;-82
2023/05/05 08:35:35;;;;;;;4.30;4.00;;;18.20;99.90;;;;;;5058954;28;20412;-82
2023/05/05 08:38:01;;;;;;;4.80;3.97;;;18.20;99.90;;;;;;5061838;28;20426;-83
2023/05/05 08:40:33;;;;;;;3.88;3.58;;;18.40;99.90;;;;;;5059364;28;20774;-83
2023/05/05 08:43:00;;;;;;;5.40;4.90;;;18.50;99.90;;;;;;5075194;28;20469;-83
2023/05/05 08:45:27;;;;;;;4.70;3.70;;;18.40;99.90;;;;;;5060384;28;20761;-82
2023/05/05 08:47:56;;;;;;;3.90;3.60;;;18.50;99.90;;;;;;5060285;28;20504;-83
2023/05/05 08:50:25;;;;;;;5.00;4.37;;;18.50;99.90;;;;;;5060463;28;20392;-83
2023/05/05 08:52:58;;;;;;;3.97;3.58;;;18.60;99.90;;;;;;5078081;28;20395;-82
2023/05/05 08:55:26;;;;;;;4.55;3.90;;;18.70;99.90;;;;;;5076456;28;20408;-81
2023/05/05 08:57:56;;;;;;;4.00;3.60;;;18.60;99.90;;;;;;5060103;28;20424;-83
2023/05/05 09:00:22;;;;;;;3.40;3.15;;;18.50;99.90;;;;;;5078458;28;20388;-83
2023/05/05 09:02:48;;;;;;;5.43;3.72;;;18.50;99.90;;;;;;5077297;28;20395;-83
2023/05/05 09:05:16;;;;;;;2.88;2.67;;;18.40;99.90;;;;;;5060117;28;20479;-82
2023/05/05 09:07:42;;;;;;;3.50;3.20;;;18.40;99.90;;;;;;5078281;28;20390;-82
2023/05/05 09:10:10;;;;;;;3.95;3.53;;;18.50;99.90;;;;;;5076963;28;20395;-82
2023/05/05 09:12:40;;;;;;;4.00;2.95;;;18.60;99.90;;;;;;5077386;28;20460;-82
2023/05/05 09:15:11;;;;;;;5.20;3.60;;;18.40;99.90;;;;;;5059181;28;20418;-81
2023/05/05 09:17:38;;;;;;;4.10;3.10;;;18.70;99.90;;;;;;5077119;28;20375;-82
2023/05/05 09:20:08;;;;;;;3.47;3.00;;;18.70;99.90;;;;;;5063133;28;20400;-80
2023/05/05 09:22:45;;;;;;;3.70;3.40;;;19.10;99.90;;;;;;5083658;28;20380;-81
2023/05/05 09:25:13;;;;;;;3.70;3.30;;;19.30;99.90;;;;;;5080338;28;20892;-81
2023/05/05 09:27:44;;;;;;;3.30;3.00;;;19.50;99.90;;;;;;5061780;28;20904;-81
2023/05/05 09:30:17;;;;;;;4.30;3.15;;;19.50;99.90;;;;;;5075819;28;20500;-82
2023/05/05 09:32:47;;;;;;;3.40;3.10;;;19.60;99.90;;;;;;5067135;28;20391;-82
2023/05/05 09:35:13;;;;;;;3.30;3.00;;;19.80;99.90;;;;;;5050140;28;20396;-81
2023/05/05 09:37:39;;;;;;;3.55;2.80;;;19.90;99.90;;;;;;5048190;28;20883;-82
2023/05/05 09:40:07;;;;;;;3.30;2.70;;;20.00;99.90;;;;;;5068149;28;20433;-82
2023/05/05 09:42:35;;;;;;;3.08;2.78;;;20.30;99.90;;;;;;5047258;28;20390;-82
2023/05/05 09:45:01;;;;;;;3.10;2.90;;;20.10;99.90;;;;;;5063013;28;20392;-82
2023/05/05 09:47:34;;;;;;;2.80;2.60;;;21.20;99.90;;;;;;5064748;28;20383;-81
2023/05/05 09:50:00;;;;;;;2.58;2.38;;;20.20;99.90;;;;;;5050901;28;20449;-81
2023/05/05 09:52:25;;;;;;;2.60;2.40;;;20.20;99.90;;;;;;5050760;28;20394;-81
2023/05/05 09:54:55;;;;;;;3.70;2.60;;;20.60;99.90;;;;;;5049063;28;20407;-81
2023/05/05 09:57:29;;;;;;;2.58;2.38;;;20.90;99.90;;;;;;5068964;28;20391;-81
2023/05/05 09:59:59;;;;;;;2.70;2.50;;;21.30;66.50;;;;;;5048965;28;20399;-82
2023/05/05 10:02:34;;;;;;;2.50;2.30;;;21.40;62.80;;;;;;5064236;28;20947;-81
2023/05/05 10:05:14;;;;;;;3.40;2.40;;;21.30;96.30;;;;;;5064225;28;20394;-82
2023/05/05 10:07:42;;;;;;;2.17;1.98;;;21.20;47.20;;;;;;5048470;28;20400;-81
2023/05/05 10:10:15;;;;;;;3.40;2.33;;;21.20;50.70;;;;;;5064625;28;20397;-81
2023/05/05 10:12:41;;;;;;;2.10;1.90;;;21.40;55.00;;;;;;5045517;28;20453;-81
2023/05/05 10:15:10;;;;;;;4.23;2.47;;;21.60;44.40;;;;;;5065461;28;20825;-81
2023/05/05 10:17:46;;;;;;;2.80;2.60;;;21.80;26.40;;;;;;5066440;28;20389;-83
2023/05/05 10:20:14;;;;;;;2.75;2.55;;;21.80;28.60;;;;;;5053747;28;20398;-81
2023/05/05 10:22:44;;;;;;;3.53;3.00;;;21.50;36.80;;;;;;5052541;28;20852;-82
2023/05/05 10:25:14;;;;;;;3.45;3.15;;;21.30;46.80;;;;;;5069109;28;20478;-81
2023/05/05 10:27:45;;;;;;;4.03;3.03;;;21.30;59.80;;;;;;5070726;28;20446;-83
2023/05/05 10:30:24;;;;;;;3.60;3.30;;;21.50;56.30;;;;;;5058135;28;20443;-82
2023/05/05 10:32:52;;;;;;;4.20;3.60;;;20.90;63.30;;;;;;5058408;28;20408;-82
2023/05/05 10:35:23;;;;;;;3.70;3.40;;;20.90;70.90;;;;;;5060164;28;20494;-83
2023/05/05 10:37:49;;;;;;;5.17;3.40;;;21.10;81.80;;;;;;5057997;28;20400;-83
2023/05/05 10:40:16;;;;;;;4.10;3.40;;;20.80;74.80;;;;;;5073824;28;21237;-81
2023/05/05 10:42:42;;;;;;;3.20;2.90;;;21.40;92.70;;;;;;5073715;28;20398;-81
2023/05/05 10:45:08;;;;;;;3.70;3.40;;;21.20;53.10;;;;;;5074185;28;20389;-82
2023/05/05 10:47:36;;;;;;;3.10;2.72;;;21.60;64.40;;;;;;5053607;28;20398;-81
2023/05/05 10:50:16;;;;;;;3.50;3.20;;;21.90;42.60;;;;;;5055484;28;20407;-81
2023/05/05 10:52:41;;;;;;;3.45;3.10;;;21.60;36.40;;;;;;5075837;28;20471;-82
2023/05/05 10:55:12;;;;;;;4.05;3.75;;;21.70;40.00;;;;;;5052423;28;20941;-81
2023/05/05 10:57:43;;;;;;;3.17;2.92;;;21.70;31.70;;;;;;5071765;28;20387;-81
2023/05/05 11:00:30;;;;;;;3.90;3.30;;;21.70;38.10;;;;;;5052987;28;20412;-81
2023/05/05 11:03:28;;;;;;;3.90;3.50;;;21.60;39.00;;;;;;5079685;28;20425;-81
2023/05/05 11:06:02;;;;;;;3.55;2.83;;;21.70;45.50;;;;;;5012886;28;20453;-80
2023/05/05 11:08:35;;;;;;;3.60;2.35;;;21.80;36.50;;;;;;5087871;28;20383;-81
2023/05/05 11:11:02;;;;;;;2.78;2.58;;;21.90;29.10;;;;;;5082070;28;20457;-81
2023/05/05 11:13:28;;;;;;;3.63;2.80;;;22.00;31.20;;;;;;5077348;28;20378;-81
2023/05/05 11:15:54;;;;;;;3.15;2.85;;;22.00;26.60;;;;;;5076929;28;20423;-82
2023/05/05 11:18:42;;;;;;;4.80;2.70;;;22.00;25.10;;;;;;5074488;28;20382;-82
2023/05/05 11:21:15;;;;;;;3.50;2.65;;;22.10;22.60;;;;;;5078225;28;20385;-83
2023/05/05 11:23:48;;;;;;;2.60;2.40;;;21.90;25.50;;;;;;5073760;28;20401;-81
2023/05/05 11:26:15;;;;;;;2.50;2.30;;;22.20;15.40;;;;;;5072481;28;20469;-82
2023/05/05 11:28:57;;;;;;;2.40;2.20;;;22.40;14.40;;;;;;5056094;28;20395;-83
2023/05/05 11:31:23;;;;;;;4.25;2.70;;;22.50;14.40;;;;;;5073898;28;20706;-82
2023/05/05 11:33:49;;;;;;;2.20;2.00;;;22.90;8.00;;;;;;5070919;28;20397;-82
2023/05/05 11:36:16;;;;;;;5.10;2.80;;;23.00;12.60;;;;;;5070310;28;20403;-82
2023/05/05 11:38:57;;;;;;;4.38;2.50;;;23.60;9.30;;;;;;5072201;28;20404;-83
2023/05/05 11:41:58;;;;;;;5.00;2.35;;;23.70;2.60;;;;;;5063802;28;20426;-82
2023/05/05 11:44:32;;;;;;;2.77;2.30;;;24.30;1.00;;;;;;5049672;28;20397;-82
2023/05/05 11:46:58;;;;;;;2.30;2.10;;;24.30;1.00;;;;;;5049623;28;20388;-82
2023/05/05 11:49:37;;;;;;;2.35;2.13;;;23.80;4.70;;;;;;5075894;28;20395;-82
2023/05/05 11:52:08;;;;;;;3.15;2.17;;;24.70;1.00;;;;;;5055241;28;20420;-82
2023/05/05 11:54:40;;;;;;;2.30;2.10;;;24.70;1.00;;;;;;5053686;28;20418;-82
2023/05/05 11:57:07;;;;;;;4.25;1.83;;;25.20;1.00;;;;;;5055993;28;20472;-83
2023/05/05 11:59:38;;;;;;;2.75;2.10;;;25.30;1.00;;;;;;5055758;28;20828;-82
2023/05/05 12:02:03;;;;;;;2.13;1.90;;;26.10;1.00;;;;;;5070805;28;20399;-83
2023/05/05 12:04:30;;;;;;;3.80;2.20;;;26.60;1.00;;;;;;5054714;28;20391;-83
2023/05/05 12:06:59;;;;;;;1.98;1.77;;;26.90;1.00;;;;;;5081382;28;20512;-83
2023/05/05 12:09:25;;;;;;;2.50;2.17;;;26.20;1.00;;;;;;5081647;28;20402;-82
2023/05/05 12:11:51;;;;;;;2.10;1.90;;;26.40;1.00;;;;;;5083177;28;20392;-82
2023/05/05 12:14:17;;;;;;;2.05;1.90;;;26.30;1.00;;;;;;5084199;28;20984;-82
2023/05/05 12:16:56;;;;;;;2.20;2.00;;;26.70;1.00;;;;;;5084227;28;20383;-82
2023/05/05 12:19:22;;;;;;;2.30;2.10;;;26.40;1.00;;;;;;5081792;28;20392;-83
2023/05/05 12:21:47;;;;;;;2.97;2.70;;;25.80;1.00;;;;;;5065218;28;20388;-82
2023/05/05 12:24:13;;;;;;;2.10;2.00;;;25.50;1.00;;;;;;5081236;28;20404;-84
2023/05/05 12:26:39;;;;;;;2.50;2.30;;;25.80;1.00;;;;;;5082016;28;20404;-84
2023/05/05 12:29:05;;;;;;;3.10;2.50;;;26.10;1.00;;;;;;5060535;28;20375;-83
2023/05/05 12:31:40;;;;;;;2.60;2.30;;;26.50;1.00;;;;;;5062895;28;20387;-83
2023/05/05 12:34:08;;;;;;;4.75;2.35;;;24.80;1.00;;;;;;5079140;28;20463;-82
2023/05/05 12:36:34;;;;;;;2.50;2.30;;;25.70;1.00;;;;;;5062277;28;20902;-84
2023/05/05 12:39:00;;;;;;;2.47;2.10;;;25.80;1.00;;;;;;5061474;28;20395;-82
2023/05/05 12:41:27;;;;;;;3.13;2.10;;;25.60;1.00;;;;;;5078972;28;20518;-84
2023/05/05 12:44:00;;;;;;;3.28;2.10;;;25.30;1.00;;;;;;5061090;28;20387;-83
2023/05/05 12:46:28;;;;;;;2.77;2.47;;;26.00;1.00;;;;;;5060208;28;20429;-84
2023/05/05 12:49:03;;;;;;;3.10;2.25;;;26.40;1.00;;;;;;5060721;28;20398;-84
2023/05/05 12:51:30;;;;;;;2.50;1.92;;;25.70;1.00;;;;;;5081616;28;20451;-84
2023/05/05 12:54:06;;;;;;;3.40;1.90;;;25.20;1.00;;;;;;5084510;28;20418;-84